Time;durP1;ratioP1;P1;durP2;ratioP2;P2;SDS_P1;SDS_P2;PMS_P1;PMS_P2;Temp;Humidity;BMP_temperature;BMP_pressure;BME280_temperature;BME280_humidity;BME280_pressure;Samples;Min_cycle;Max_cycle;Signal;HPM_P1;HPM_P2
2022/12/24 04:02:12;;;;;;;0.50;0.10;;;12.20;84.20;;;;;;5443445;23;89007;-70
2022/12/24 04:04:37;;;;;;;1.00;0.05;;;12.20;84.90;;;;;;4897376;28;87251;-69
2022/12/24 04:07:04;;;;;;;1.80;0.10;;;12.20;84.40;;;;;;4900447;28;87093;-70
2022/12/24 04:09:30;;;;;;;1.08;0.00;;;12.20;84.60;;;;;;4900848;28;88106;-70
2022/12/24 04:11:55;;;;;;;0.10;0.00;;;12.20;84.40;;;;;;4898833;28;86705;-70
2022/12/24 04:14:21;;;;;;;1.23;0.05;;;12.10;85.10;;;;;;4899431;28;88087;-70
2022/12/24 04:16:47;;;;;;;0.43;0.00;;;12.10;85.80;;;;;;4896737;28;87149;-70
2022/12/24 04:19:12;;;;;;;0.40;0.05;;;12.00;87.60;;;;;;4900914;28;87417;-70
2022/12/24 04:21:38;;;;;;;0.30;0.00;;;11.90;86.00;;;;;;4884958;28;86567;-70
2022/12/24 04:24:05;;;;;;;0.30;0.10;;;11.90;87.00;;;;;;4902044;28;87673;-70
2022/12/24 04:26:31;;;;;;;0.20;0.00;;;11.80;87.10;;;;;;4902269;28;86949;-71
2022/12/24 04:28:57;;;;;;;2.08;0.00;;;11.80;86.00;;;;;;4902831;28;86502;-70
2022/12/24 04:31:22;;;;;;;0.38;0.30;;;11.70;86.70;;;;;;4902888;28;85923;-70
2022/12/24 04:33:51;;;;;;;0.30;0.00;;;11.70;86.10;;;;;;4901267;28;87160;-71
2022/12/24 04:36:18;;;;;;;0.35;0.00;;;11.70;85.30;;;;;;4899140;28;87011;-71
2022/12/24 04:38:45;;;;;;;0.90;0.03;;;11.80;84.60;;;;;;4901259;28;87228;-71
2022/12/24 04:41:14;;;;;;;0.20;0.00;;;11.70;84.70;;;;;;4900870;28;86747;-71
2022/12/24 04:43:40;;;;;;;0.93;0.10;;;11.80;85.60;;;;;;4900042;28;87718;-70
2022/12/24 04:46:13;;;;;;;0.90;0.10;;;11.70;85.20;;;;;;4899765;28;87135;-70
2022/12/24 04:48:39;;;;;;;0.52;0.00;;;11.70;85.10;;;;;;4899554;28;86327;-70
2022/12/24 04:51:07;;;;;;;0.20;0.00;;;11.60;85.40;;;;;;4901677;28;86876;-70
2022/12/24 04:53:33;;;;;;;0.20;0.00;;;11.60;85.30;;;;;;4900170;28;87542;-70
2022/12/24 04:56:00;;;;;;;0.52;0.00;;;11.50;85.40;;;;;;4901079;28;86932;-69
2022/12/24 04:58:25;;;;;;;1.08;0.00;;;11.60;85.80;;;;;;4900853;28;86176;-70
2022/12/24 05:00:51;;;;;;;0.40;0.00;;;11.60;86.30;;;;;;4891972;28;86285;-70
2022/12/24 05:03:17;;;;;;;0.32;0.00;;;11.70;85.40;;;;;;4877784;28;88633;-70
2022/12/24 05:05:43;;;;;;;0.22;0.00;;;11.70;85.60;;;;;;4883787;28;87762;-70
2022/12/24 05:08:08;;;;;;;0.08;0.00;;;11.70;84.40;;;;;;4885364;28;86969;-70
2022/12/24 05:10:34;;;;;;;0.15;0.00;;;11.70;84.90;;;;;;4886236;28;86767;-70
2022/12/24 05:13:00;;;;;;;0.20;0.00;;;11.70;85.60;;;;;;4884791;28;87344;-70
2022/12/24 05:15:25;;;;;;;0.13;0.03;;;11.70;86.10;;;;;;4879931;28;86906;-70
2022/12/24 05:17:51;;;;;;;0.20;0.00;;;11.70;86.10;;;;;;4880396;28;86503;-70
2022/12/24 05:20:17;;;;;;;0.20;0.00;;;11.60;85.70;;;;;;4881436;28;86424;-71
2022/12/24 05:28:20;;;;;;;1.17;0.10;;;11.60;84.30;;;;;;4881098;28;87208;-70
2022/12/24 05:30:46;;;;;;;1.90;0.10;;;11.70;85.50;;;;;;4880321;28;87092;-70
2022/12/24 05:33:11;;;;;;;0.30;0.00;;;11.60;85.50;;;;;;4880176;28;87176;-70
2022/12/24 05:35:37;;;;;;;1.17;0.00;;;11.50;87.30;;;;;;4881204;28;86782;-70
2022/12/24 05:38:03;;;;;;;0.70;0.05;;;11.50;88.40;;;;;;4890553;28;87108;-70
2022/12/24 05:40:28;;;;;;;0.90;0.10;;;11.40;88.40;;;;;;4888618;28;86479;-71
2022/12/24 05:42:54;;;;;;;0.45;0.00;;;11.30;89.50;;;;;;4878318;28;86915;-70
2022/12/24 05:45:20;;;;;;;0.50;0.00;;;11.30;90.10;;;;;;4881040;28;86382;-70
2022/12/24 05:47:45;;;;;;;1.88;0.10;;;11.20;90.70;;;;;;4887921;28;87078;-71
2022/12/24 05:50:11;;;;;;;0.60;0.00;;;11.20;91.10;;;;;;4888150;28;86443;-70
2022/12/24 05:52:37;;;;;;;0.30;0.00;;;11.10;91.20;;;;;;4882558;28;87762;-71
2022/12/24 05:55:03;;;;;;;0.13;0.00;;;11.00;91.40;;;;;;4882101;28;87797;-71
2022/12/24 05:57:29;;;;;;;0.32;0.00;;;10.90;91.80;;;;;;4883737;28;86699;-71
2022/12/24 05:59:54;;;;;;;0.20;0.00;;;10.80;92.40;;;;;;4881664;28;86757;-70
2022/12/24 06:02:20;;;;;;;0.20;0.00;;;10.70;92.40;;;;;;4842830;28;1211446;-71
2022/12/24 06:04:46;;;;;;;0.75;0.00;;;10.80;92.70;;;;;;4893121;28;86622;-71
2022/12/24 06:07:11;;;;;;;0.47;0.00;;;10.80;92.10;;;;;;4885263;28;86311;-71
2022/12/24 06:09:37;;;;;;;2.45;0.03;;;10.80;91.90;;;;;;4890636;28;86154;-71
2022/12/24 06:12:03;;;;;;;1.83;0.10;;;10.80;92.30;;;;;;4887607;28;86968;-71
2022/12/24 06:14:28;;;;;;;0.20;0.00;;;10.80;92.50;;;;;;4881822;28;86894;-71
2022/12/24 06:16:54;;;;;;;0.90;0.10;;;10.70;92.30;;;;;;4880944;28;88209;-70
2022/12/24 06:19:20;;;;;;;0.50;0.00;;;10.70;92.70;;;;;;4881676;28;86334;-70
2022/12/24 06:21:46;;;;;;;1.75;0.00;;;10.60;92.70;;;;;;4872089;28;87114;-70
2022/12/24 06:24:11;;;;;;;0.30;0.00;;;10.70;92.80;;;;;;4880835;28;86232;-70
2022/12/24 06:26:37;;;;;;;0.40;0.00;;;10.60;92.80;;;;;;4881377;28;86291;-70
2022/12/24 06:29:03;;;;;;;1.00;0.10;;;10.60;93.00;;;;;;4881266;28;86209;-69
2022/12/24 06:31:28;;;;;;;2.72;0.08;;;10.50;93.20;;;;;;4882246;28;86949;-69
2022/12/24 06:33:54;;;;;;;1.17;0.08;;;10.40;93.60;;;;;;4880813;28;86200;-70
2022/12/24 06:36:24;;;;;;;0.10;0.00;;;10.40;94.00;;;;;;4878721;28;88180;-71
2022/12/24 06:38:52;;;;;;;0.98;0.00;;;10.40;94.00;;;;;;4881159;28;86769;-71
2022/12/24 06:41:18;;;;;;;1.23;0.10;;;10.40;94.40;;;;;;4874871;28;89293;-70
2022/12/24 06:43:49;;;;;;;0.52;0.10;;;10.40;94.40;;;;;;4877702;28;88209;-71
2022/12/24 06:46:16;;;;;;;1.33;0.10;;;10.40;94.60;;;;;;4883076;28;86303;-71
2022/12/24 06:48:43;;;;;;;0.20;0.00;;;10.40;95.00;;;;;;4879016;28;86788;-71
2022/12/24 06:51:09;;;;;;;0.38;0.00;;;10.40;95.20;;;;;;4873228;28;86831;-71
2022/12/24 06:53:35;;;;;;;0.90;0.00;;;10.40;95.30;;;;;;4881065;28;86551;-71
2022/12/24 06:56:09;;;;;;;2.40;0.10;;;10.30;95.80;;;;;;4876247;28;86614;-71
2022/12/24 06:58:35;;;;;;;0.60;0.10;;;10.30;96.10;;;;;;4878586;28;85506;-71
2022/12/24 07:01:02;;;;;;;0.40;0.00;;;10.30;96.40;;;;;;4881471;28;87115;-70
2022/12/24 07:03:28;;;;;;;2.60;0.10;;;10.20;96.60;;;;;;4881534;28;87002;-70
2022/12/24 07:05:54;;;;;;;0.93;0.10;;;10.20;96.20;;;;;;4880263;28;87756;-70
2022/12/24 07:08:19;;;;;;;1.38;0.10;;;10.20;96.30;;;;;;4882717;28;86511;-70
2022/12/24 07:10:47;;;;;;;1.25;0.03;;;10.20;95.90;;;;;;4876882;28;88586;-70
2022/12/24 07:13:13;;;;;;;1.25;0.10;;;10.30;96.00;;;;;;4887508;28;86909;-69
2022/12/24 07:15:39;;;;;;;0.70;0.05;;;10.30;95.80;;;;;;4882066;28;86652;-69
2022/12/24 07:18:04;;;;;;;0.50;0.00;;;10.30;95.80;;;;;;4889395;28;87091;-69
2022/12/24 07:20:30;;;;;;;0.65;0.08;;;10.30;95.90;;;;;;4880455;28;87258;-70
2022/12/24 07:22:55;;;;;;;1.95;0.10;;;10.30;95.90;;;;;;4881630;28;87478;-70
2022/12/24 07:25:21;;;;;;;0.60;0.10;;;10.20;96.00;;;;;;4882104;28;86973;-70
2022/12/24 07:27:47;;;;;;;1.15;0.00;;;10.20;96.30;;;;;;4887254;28;86836;-70
2022/12/24 07:30:13;;;;;;;0.40;0.00;;;10.10;96.70;;;;;;4881108;28;88318;-70
2022/12/24 07:32:38;;;;;;;2.75;0.10;;;10.10;96.80;;;;;;4884771;28;88860;-70
2022/12/24 07:35:04;;;;;;;2.25;0.10;;;10.00;97.40;;;;;;4888288;28;88155;-69
2022/12/24 07:37:30;;;;;;;0.70;0.10;;;9.90;98.00;;;;;;4879029;28;86911;-70
2022/12/24 07:39:56;;;;;;;1.13;0.10;;;9.90;98.20;;;;;;4886219;28;87256;-70
2022/12/24 07:42:22;;;;;;;3.75;0.20;;;9.90;98.50;;;;;;4882264;28;87216;-70
2022/12/24 07:44:47;;;;;;;0.80;0.10;;;9.90;98.60;;;;;;4875882;28;87075;-70
2022/12/24 07:47:13;;;;;;;1.83;0.10;;;10.00;98.50;;;;;;4873763;28;85808;-70
2022/12/24 07:49:39;;;;;;;0.70;0.10;;;10.00;98.40;;;;;;4881721;28;87266;-70
2022/12/24 07:52:04;;;;;;;0.70;0.10;;;9.90;98.30;;;;;;4881308;28;86326;-70
2022/12/24 07:54:30;;;;;;;1.13;0.15;;;9.90;98.70;;;;;;4884796;28;87881;-70
2022/12/24 07:56:55;;;;;;;0.80;0.10;;;9.90;99.10;;;;;;4879933;28;86288;-70
2022/12/24 07:59:21;;;;;;;1.30;0.10;;;10.00;99.40;;;;;;4883287;28;86644;-70
2022/12/24 08:01:47;;;;;;;1.60;0.10;;;10.00;99.00;;;;;;4878427;28;87031;-70
2022/12/24 08:04:12;;;;;;;0.70;0.10;;;10.00;99.30;;;;;;4875514;28;86914;-68
2022/12/24 08:06:38;;;;;;;1.15;0.10;;;10.00;99.10;;;;;;4877090;28;87903;-72
2022/12/24 08:09:04;;;;;;;0.55;0.10;;;10.00;99.50;;;;;;4887471;28;86553;-69
2022/12/24 08:11:30;;;;;;;0.98;0.10;;;10.00;99.50;;;;;;4873678;28;86900;-70
2022/12/24 08:13:56;;;;;;;1.15;0.10;;;9.90;99.40;;;;;;4882786;28;87105;-71
2022/12/24 08:16:22;;;;;;;1.08;0.10;;;9.90;99.70;;;;;;4884729;28;86274;-70
2022/12/24 08:18:47;;;;;;;0.60;0.10;;;9.90;99.30;;;;;;4883725;28;87471;-69
2022/12/24 08:21:13;;;;;;;1.23;0.20;;;9.80;98.80;;;;;;4887266;28;87174;-69
2022/12/24 08:23:39;;;;;;;1.08;0.10;;;9.80;99.10;;;;;;4887210;28;86856;-69
2022/12/24 08:26:09;;;;;;;1.23;0.10;;;9.90;99.10;;;;;;4881399;28;87516;-69
2022/12/24 08:28:35;;;;;;;1.60;0.30;;;9.90;98.70;;;;;;4873820;28;87290;-69
2022/12/24 08:31:01;;;;;;;2.03;0.25;;;9.80;98.60;;;;;;4882928;28;86328;-69
2022/12/24 08:33:26;;;;;;;0.60;0.10;;;9.80;98.50;;;;;;4877393;28;86801;-69
2022/12/24 08:35:54;;;;;;;0.30;0.00;;;9.80;97.50;;;;;;4882876;28;85822;-69
2022/12/24 08:38:21;;;;;;;0.35;0.00;;;9.80;97.00;;;;;;4878934;28;86823;-69
2022/12/24 08:40:50;;;;;;;0.45;0.10;;;9.90;96.20;;;;;;4884230;28;87540;-69
2022/12/24 08:43:17;;;;;;;0.52;0.00;;;9.90;96.00;;;;;;4876427;28;89180;-69
2022/12/24 08:45:43;;;;;;;0.43;0.00;;;9.90;94.70;;;;;;4878484;28;88288;-69
2022/12/24 08:48:10;;;;;;;2.25;0.10;;;9.90;94.20;;;;;;4882619;28;86855;-69
2022/12/24 08:50:38;;;;;;;0.80;0.10;;;9.90;94.30;;;;;;4882275;28;86703;-69
2022/12/24 08:53:04;;;;;;;1.63;0.45;;;10.00;94.60;;;;;;4876707;28;86538;-68
2022/12/24 08:55:30;;;;;;;1.45;0.20;;;10.00;95.00;;;;;;4879782;28;86904;-69
2022/12/24 08:57:55;;;;;;;10.30;2.92;;;9.90;96.70;;;;;;4882113;28;87752;-69
2022/12/24 09:00:21;;;;;;;2.75;0.57;;;9.90;97.50;;;;;;4878097;28;87036;-69
2022/12/24 09:02:47;;;;;;;10.43;3.30;;;9.90;97.50;;;;;;4878392;28;86885;-70
2022/12/24 09:05:12;;;;;;;2.30;0.20;;;9.90;98.70;;;;;;4881863;28;86406;-69
2022/12/24 09:07:38;;;;;;;4.75;1.00;;;9.90;97.10;;;;;;4882056;28;88378;-70
2022/12/24 09:10:05;;;;;;;2.15;0.40;;;9.90;97.60;;;;;;4867395;28;89041;-70
2022/12/24 09:12:30;;;;;;;3.13;0.55;;;9.90;96.90;;;;;;4861842;28;86668;-71
2022/12/24 09:14:56;;;;;;;3.35;0.68;;;9.90;96.50;;;;;;4879062;28;87261;-72
2022/12/24 09:17:22;;;;;;;0.85;0.10;;;10.00;96.20;;;;;;4877293;28;88099;-71
2022/12/24 09:19:48;;;;;;;4.15;0.75;;;10.00;96.00;;;;;;4878539;28;87096;-71
2022/12/24 09:22:13;;;;;;;4.20;1.08;;;10.00;95.80;;;;;;4881715;28;86942;-71
2022/12/24 09:24:39;;;;;;;7.90;1.38;;;10.00;95.80;;;;;;4882549;28;86279;-72
2022/12/24 09:27:05;;;;;;;2.15;0.63;;;10.10;95.50;;;;;;4880607;28;87459;-73
2022/12/24 09:29:31;;;;;;;1.05;0.10;;;10.20;94.40;;;;;;4878256;28;87004;-73
2022/12/24 09:31:56;;;;;;;0.40;0.00;;;10.20;94.40;;;;;;4877952;28;87501;-72
2022/12/24 09:34:23;;;;;;;1.58;0.38;;;10.30;93.60;;;;;;4877448;28;87284;-72
2022/12/24 09:36:50;;;;;;;2.92;0.00;;;10.30;92.30;;;;;;4875202;28;86745;-72
2022/12/24 09:39:17;;;;;;;2.20;0.03;;;10.40;92.60;;;;;;4877949;28;87135;-70
2022/12/24 09:42:11;;;;;;;7.43;1.67;;;10.40;92.30;;;;;;4883130;28;86663;-72
2022/12/24 09:44:52;;;;;;;0.82;0.00;;;10.40;92.60;;;;;;4881947;28;87088;-70
2022/12/24 09:47:33;;;;;;;0.40;0.03;;;10.40;92.60;;;;;;4884373;28;87980;-72
2022/12/24 09:50:05;;;;;;;7.88;1.73;;;10.40;92.00;;;;;;4882652;28;87042;-72
2022/12/24 09:52:44;;;;;;;1.85;0.32;;;10.50;92.80;;;;;;4877858;28;86751;-71
2022/12/24 09:55:50;;;;;;;4.93;0.90;;;10.50;91.90;;;;;;4877405;28;86762;-71
2022/12/24 09:58:22;;;;;;;0.90;0.15;;;10.50;91.80;;;;;;4808545;29;88083;-71
2022/12/24 10:00:49;;;;;;;0.38;0.00;;;10.60;92.20;;;;;;4801341;29;87051;-71
2022/12/24 10:03:16;;;;;;;1.00;0.10;;;10.70;92.00;;;;;;4838089;28;86737;-71
2022/12/24 10:05:41;;;;;;;1.23;0.10;;;10.70;91.50;;;;;;4881358;28;86713;-71
2022/12/24 10:08:16;;;;;;;2.22;0.50;;;10.70;91.50;;;;;;4880191;28;87189;-71
2022/12/24 10:10:52;;;;;;;1.13;0.10;;;10.80;91.50;;;;;;4881635;28;86963;-71
2022/12/24 10:13:55;;;;;;;4.13;1.27;;;10.80;91.50;;;;;;4883040;28;86694;-71
2022/12/24 10:16:36;;;;;;;3.50;0.28;;;10.80;91.10;;;;;;4874038;28;85543;-71
2022/12/24 10:19:08;;;;;;;0.80;0.10;;;10.80;91.30;;;;;;4881852;28;87552;-71
2022/12/24 10:22:09;;;;;;;5.60;1.15;;;10.90;91.20;;;;;;4880127;28;86281;-71
2022/12/24 10:24:45;;;;;;;1.55;0.10;;;10.90;91.20;;;;;;4867454;28;87566;-71
2022/12/24 10:27:13;;;;;;;3.10;0.40;;;10.90;91.30;;;;;;4879572;28;86978;-71
2022/12/24 10:29:49;;;;;;;6.10;0.60;;;10.80;92.10;;;;;;4876033;28;88190;-71
2022/12/24 10:32:21;;;;;;;2.63;0.60;;;10.80;92.90;;;;;;4876130;28;86345;-71
2022/12/24 10:35:15;;;;;;;0.50;0.10;;;10.80;93.20;;;;;;4879383;28;86259;-71
2022/12/24 10:37:43;;;;;;;1.75;0.40;;;10.80;92.40;;;;;;4876933;28;87428;-71
2022/12/24 10:40:23;;;;;;;3.28;0.45;;;10.90;93.00;;;;;;4877873;28;86819;-71
2022/12/24 10:42:48;;;;;;;0.63;0.10;;;10.90;93.40;;;;;;4877437;28;86231;-71
2022/12/24 10:45:19;;;;;;;5.28;1.23;;;10.80;93.10;;;;;;4880082;28;86754;-71
2022/12/24 10:47:50;;;;;;;0.50;0.10;;;10.90;93.20;;;;;;4875589;28;86689;-71
2022/12/24 10:50:36;;;;;;;2.00;0.20;;;11.00;91.90;;;;;;4877338;28;88214;-71
2022/12/24 10:53:35;;;;;;;0.55;0.10;;;11.00;92.10;;;;;;4877311;28;87409;-71
2022/12/24 10:56:05;;;;;;;2.65;0.10;;;11.00;92.40;;;;;;4879868;28;87057;-71
2022/12/24 10:58:31;;;;;;;0.75;0.20;;;11.10;92.10;;;;;;4880562;28;86265;-72
2022/12/24 11:00:57;;;;;;;3.92;0.95;;;11.00;92.10;;;;;;4879981;28;88142;-72
2022/12/24 11:03:30;;;;;;;1.67;0.10;;;11.00;92.30;;;;;;4876003;28;87201;-71
2022/12/24 11:06:00;;;;;;;1.60;0.03;;;11.00;92.40;;;;;;4879666;28;87190;-71
2022/12/24 11:08:26;;;;;;;0.43;0.10;;;11.00;92.20;;;;;;4877060;28;86044;-71
2022/12/24 11:10:57;;;;;;;2.78;0.32;;;11.00;92.20;;;;;;4877463;28;87267;-71
2022/12/24 11:13:31;;;;;;;2.13;0.20;;;11.00;92.70;;;;;;4877190;28;87102;-71
2022/12/24 11:16:07;;;;;;;0.60;0.00;;;10.90;92.50;;;;;;4878079;28;87638;-70
2022/12/24 11:18:37;;;;;;;0.65;0.10;;;10.80;92.90;;;;;;4880553;28;86801;-71
2022/12/24 11:21:04;;;;;;;2.75;0.10;;;10.80;93.10;;;;;;4880770;28;87458;-71
2022/12/24 11:23:30;;;;;;;2.28;0.22;;;10.80;93.40;;;;;;4879095;28;88011;-71
2022/12/24 11:25:57;;;;;;;0.93;0.03;;;10.80;93.30;;;;;;4877763;28;86862;-71
2022/12/24 11:28:28;;;;;;;1.80;0.05;;;10.80;93.60;;;;;;4877815;28;86694;-71
2022/12/24 11:31:02;;;;;;;1.20;0.13;;;10.80;93.90;;;;;;4879398;28;87113;-71
2022/12/24 11:33:30;;;;;;;0.65;0.00;;;10.70;93.90;;;;;;4876176;28;86199;-71
2022/12/24 11:36:11;;;;;;;0.95;0.20;;;10.70;94.40;;;;;;4881881;28;87827;-70
2022/12/24 11:38:37;;;;;;;1.05;0.00;;;10.60;94.50;;;;;;4877055;28;87064;-71
2022/12/24 11:41:09;;;;;;;1.25;0.13;;;10.60;94.70;;;;;;4878235;28;88295;-71
2022/12/24 11:43:59;;;;;;;4.15;1.13;;;10.50;94.70;;;;;;4878730;28;87131;-71
2022/12/24 11:46:36;;;;;;;3.28;1.10;;;10.50;95.60;;;;;;4872583;28;87136;-71
2022/12/24 11:49:29;;;;;;;2.10;0.20;;;10.40;95.80;;;;;;4875713;28;87320;-71
2022/12/24 11:52:09;;;;;;;1.17;0.30;;;10.40;95.90;;;;;;4865916;28;86741;-71
2022/12/24 11:55:21;;;;;;;2.58;0.77;;;10.30;96.20;;;;;;4874957;28;87209;-71
2022/12/24 11:57:54;;;;;;;2.08;0.30;;;10.30;96.70;;;;;;4850913;28;86356;-70
2022/12/24 12:00:20;;;;;;;3.65;0.60;;;10.40;96.40;;;;;;4876632;28;86340;-71
2022/12/24 12:02:49;;;;;;;1.85;0.32;;;10.40;96.70;;;;;;4874779;28;87274;-71
2022/12/24 12:05:20;;;;;;;2.03;0.63;;;10.50;96.90;;;;;;4871166;28;87026;-71
2022/12/24 12:07:50;;;;;;;4.63;1.48;;;10.50;96.40;;;;;;4878419;28;88133;-70
2022/12/24 12:10:21;;;;;;;3.53;1.55;;;10.50;96.70;;;;;;4871272;28;87944;-70
2022/12/24 12:13:04;;;;;;;2.40;0.65;;;10.60;96.10;;;;;;4874320;28;86625;-70
2022/12/24 12:15:50;;;;;;;;;;;10.60;95.70;;;;;;4876195;28;87494;-69
2022/12/24 12:18:22;;;;;;;2.78;0.38;;;10.60;95.40;;;;;;4876295;28;86337;-70
2022/12/24 12:20:58;;;;;;;3.38;1.25;;;10.60;95.40;;;;;;4876141;28;86247;-70
2022/12/24 12:23:38;;;;;;;6.95;1.10;;;10.70;95.00;;;;;;4874188;28;88252;-71
2022/12/24 12:26:14;;;;;;;4.00;1.13;;;10.70;94.80;;;;;;4875746;28;87089;-70
2022/12/24 12:28:54;;;;;;;5.90;2.08;;;10.70;94.80;;;;;;4873094;28;87544;-71
2022/12/24 12:31:32;;;;;;;5.88;2.75;;;10.70;94.30;;;;;;4873801;28;87438;-69
2022/12/24 12:34:05;;;;;;;1.70;0.70;;;10.70;94.10;;;;;;4877353;28;87780;-71
2022/12/24 12:37:17;;;;;;;6.07;1.63;;;10.80;94.00;;;;;;4876573;28;87915;-71
2022/12/24 12:39:42;;;;;;;3.53;1.05;;;10.80;94.60;;;;;;4798848;29;87243;-70
2022/12/24 12:42:31;;;;;;;4.07;0.60;;;10.90;94.30;;;;;;4798983;29;87401;-71
2022/12/24 12:45:19;;;;;;;1.40;0.25;;;10.90;93.70;;;;;;4849653;28;87248;-71
2022/12/24 12:47:53;;;;;;;0.85;0.10;;;10.90;93.30;;;;;;4878442;28;86436;-71
2022/12/24 12:50:38;;;;;;;1.23;0.35;;;10.80;93.30;;;;;;4876170;28;86266;-71
2022/12/24 12:53:23;;;;;;;1.63;0.30;;;10.80;93.10;;;;;;4873329;28;85673;-71
2022/12/24 12:56:12;;;;;;;1.45;0.50;;;10.70;93.40;;;;;;4878781;28;87375;-71
2022/12/24 12:59:02;;;;;;;1.77;0.43;;;10.70;93.30;;;;;;4867087;28;86460;-71
2022/12/24 13:01:52;;;;;;;1.55;0.30;;;10.70;92.90;;;;;;4877112;28;87318;-71
2022/12/24 13:04:35;;;;;;;2.20;0.80;;;10.70;93.00;;;;;;4877269;28;86876;-71
2022/12/24 13:07:19;;;;;;;2.80;1.50;;;10.70;93.10;;;;;;4878232;28;86579;-71
2022/12/24 13:10:06;;;;;;;1.10;0.32;;;10.70;93.20;;;;;;4877216;28;87032;-71
2022/12/24 13:12:41;;;;;;;3.97;0.80;;;10.70;93.00;;;;;;4876504;28;86914;-71
2022/12/24 13:15:42;;;;;;;2.70;0.75;;;10.70;93.40;;;;;;4875042;28;86900;-71
2022/12/24 13:18:13;;;;;;;1.35;0.40;;;10.70;93.90;;;;;;4874490;28;87027;-71
2022/12/24 13:20:47;;;;;;;1.80;0.77;;;10.70;93.10;;;;;;4877046;28;86066;-71
2022/12/24 13:23:16;;;;;;;1.63;0.30;;;10.60;93.20;;;;;;4877938;28;87095;-71
2022/12/24 13:25:45;;;;;;;6.35;0.75;;;10.60;93.20;;;;;;4874510;28;86498;-70
2022/12/24 13:28:14;;;;;;;0.43;0.10;;;10.60;93.70;;;;;;4875622;28;88033;-70
2022/12/24 13:30:40;;;;;;;1.70;0.15;;;10.70;92.90;;;;;;4879646;28;87861;-70
2022/12/24 13:33:10;;;;;;;1.02;0.20;;;10.70;92.50;;;;;;4877246;28;87763;-71
2022/12/24 13:35:38;;;;;;;0.40;0.00;;;10.70;92.50;;;;;;4877589;28;86835;-71
2022/12/24 13:38:57;;;;;;;7.43;1.30;;;10.60;92.70;;;;;;4877647;28;87284;-71
2022/12/24 13:44:12;;;;;;;2.47;0.50;;;10.50;93.90;;;;;;4880444;28;86948;-71
2022/12/24 13:47:04;;;;;;;7.03;1.25;;;10.50;93.70;;;;;;4881599;28;86090;-71
2022/12/24 13:50:03;;;;;;;0.70;0.13;;;10.40;94.10;;;;;;4881941;28;88074;-70
2022/12/24 13:52:30;;;;;;;0.77;0.10;;;10.50;93.10;;;;;;4881362;28;88218;-70
2022/12/24 13:55:04;;;;;;;3.42;0.70;;;10.50;93.40;;;;;;4876263;28;87832;-70
2022/12/24 13:57:40;;;;;;;5.72;1.23;;;10.40;93.30;;;;;;4877784;28;87155;-71
2022/12/24 14:00:31;;;;;;;1.02;0.00;;;10.40;93.90;;;;;;4874246;28;88339;-70
2022/12/24 14:03:12;;;;;;;2.85;0.50;;;10.40;94.20;;;;;;4876720;28;86338;-70
2022/12/24 14:05:39;;;;;;;4.03;0.80;;;10.40;94.00;;;;;;4878367;28;87081;-71
2022/12/24 14:08:28;;;;;;;6.40;1.30;;;10.40;94.10;;;;;;4876895;28;86812;-71
2022/12/24 14:11:10;;;;;;;3.33;0.57;;;10.40;94.70;;;;;;4876739;28;87179;-71
2022/12/24 14:13:39;;;;;;;1.15;0.10;;;10.50;93.90;;;;;;4881508;28;86248;-71
2022/12/24 14:16:10;;;;;;;3.38;0.85;;;10.50;93.50;;;;;;4876145;28;86997;-71
2022/12/24 14:18:42;;;;;;;1.08;0.22;;;10.50;93.60;;;;;;4883553;28;86253;-70
2022/12/24 14:21:23;;;;;;;3.00;0.52;;;10.60;93.00;;;;;;4881146;28;87465;-70
2022/12/24 14:24:11;;;;;;;4.65;0.68;;;10.50;92.80;;;;;;4883743;28;87238;-70
2022/12/24 14:26:46;;;;;;;1.70;0.43;;;10.50;92.90;;;;;;4888245;28;86926;-71
2022/12/24 14:29:17;;;;;;;6.18;0.65;;;10.50;92.90;;;;;;4885584;28;86344;-70
2022/12/24 14:31:54;;;;;;;4.03;0.75;;;10.50;93.00;;;;;;4880729;28;87165;-70
2022/12/24 14:34:20;;;;;;;2.88;0.40;;;10.50;93.70;;;;;;4881975;28;86244;-70
2022/12/24 14:36:48;;;;;;;4.55;0.80;;;10.40;93.30;;;;;;4886124;28;86575;-71
2022/12/24 14:39:27;;;;;;;4.95;1.30;;;10.40;93.50;;;;;;4887727;28;85517;-71
2022/12/24 14:42:17;;;;;;;2.60;0.20;;;10.40;94.00;;;;;;4880993;28;87372;-71
2022/12/24 14:44:58;;;;;;;2.00;0.60;;;10.40;93.50;;;;;;4877948;28;86785;-71
2022/12/24 14:47:30;;;;;;;5.70;1.80;;;10.30;93.70;;;;;;4885899;28;88200;-71
2022/12/24 14:50:17;;;;;;;2.78;0.85;;;10.30;94.10;;;;;;4885876;28;86322;-71
2022/12/24 14:52:59;;;;;;;2.72;0.32;;;10.30;94.50;;;;;;4878197;28;86765;-71
2022/12/24 14:55:34;;;;;;;2.35;0.65;;;10.20;95.00;;;;;;4885068;28;86825;-71
2022/12/24 14:58:20;;;;;;;2.35;0.30;;;10.20;95.60;;;;;;4883517;28;86495;-71
2022/12/24 15:00:46;;;;;;;2.50;0.47;;;10.10;96.10;;;;;;4883667;28;86647;-71
2022/12/24 15:03:18;;;;;;;2.17;0.50;;;10.10;96.70;;;;;;4882088;28;86539;-71
2022/12/24 15:05:45;;;;;;;1.42;0.40;;;10.00;96.90;;;;;;4889023;28;86847;-71
2022/12/24 15:08:39;;;;;;;2.05;0.50;;;10.00;97.00;;;;;;4883933;28;86946;-71
2022/12/24 15:11:07;;;;;;;2.97;0.30;;;10.00;97.30;;;;;;4868061;28;86396;-71
2022/12/24 15:13:37;;;;;;;1.73;0.30;;;10.00;97.30;;;;;;4872063;28;88009;-71
2022/12/24 15:16:07;;;;;;;3.08;0.20;;;10.00;97.30;;;;;;4876978;28;88829;-71
2022/12/24 15:18:37;;;;;;;5.00;0.43;;;10.00;97.20;;;;;;4880759;28;87194;-71
2022/12/24 15:21:06;;;;;;;8.38;2.38;;;10.00;97.40;;;;;;4885529;28;86746;-71
2022/12/24 15:23:35;;;;;;;4.65;1.33;;;9.90;97.40;;;;;;4885166;28;87106;-71
2022/12/24 15:26:07;;;;;;;18.92;5.93;;;9.90;97.30;;;;;;4886222;28;86287;-72
2022/12/24 15:28:37;;;;;;;10.82;4.20;;;9.90;98.30;;;;;;4886805;28;86355;-71
2022/12/24 15:31:10;;;;;;;9.10;3.10;;;9.90;99.40;;;;;;4884474;28;85852;-71
2022/12/24 15:33:37;;;;;;;8.45;4.00;;;9.90;99.90;;;;;;4884729;28;87278;-71
2022/12/24 15:36:04;;;;;;;7.40;3.70;;;9.90;99.90;;;;;;4883700;28;86365;-71
2022/12/24 15:38:45;;;;;;;5.93;1.70;;;9.90;99.90;;;;;;4881617;28;87759;-72
2022/12/24 15:41:16;;;;;;;4.63;1.48;;;10.00;99.70;;;;;;4880399;28;86380;-71
2022/12/24 15:43:44;;;;;;;2.75;0.90;;;10.00;99.90;;;;;;4883950;28;86885;-72
2022/12/24 15:46:24;;;;;;;7.25;2.88;;;10.00;99.10;;;;;;4881802;28;87060;-71
2022/12/24 15:48:52;;;;;;;2.28;0.90;;;10.00;98.80;;;;;;4883836;28;88204;-71
2022/12/24 15:51:31;;;;;;;5.55;2.30;;;10.00;97.80;;;;;;4883428;28;87118;-71
2022/12/24 15:54:04;;;;;;;2.40;0.40;;;10.00;97.30;;;;;;4882567;28;87415;-71
2022/12/24 15:56:33;;;;;;;2.53;0.98;;;10.00;96.60;;;;;;4884139;28;86994;-71
2022/12/24 15:59:26;;;;;;;2.70;0.32;;;10.00;96.40;;;;;;4881578;28;86773;-72
2022/12/24 16:01:52;;;;;;;2.38;0.47;;;10.00;95.90;;;;;;4875581;28;86614;-71
2022/12/24 16:04:27;;;;;;;1.02;0.30;;;10.00;95.80;;;;;;4882648;28;87438;-71
2022/12/24 16:06:52;;;;;;;1.80;0.32;;;10.00;95.60;;;;;;4878244;28;87930;-71
2022/12/24 16:09:43;;;;;;;1.10;0.22;;;10.00;95.70;;;;;;4882708;28;86977;-71
2022/12/24 16:12:34;;;;;;;1.80;0.20;;;9.90;95.50;;;;;;4878996;28;86458;-72
2022/12/24 16:15:00;;;;;;;3.60;0.93;;;10.00;95.80;;;;;;4878727;28;86754;-71
2022/12/24 16:17:30;;;;;;;2.50;0.63;;;9.90;95.90;;;;;;4876342;28;86998;-71
2022/12/24 16:20:02;;;;;;;2.45;0.82;;;9.90;95.80;;;;;;4874889;28;86264;-71
2022/12/24 16:22:30;;;;;;;4.15;1.98;;;9.90;95.60;;;;;;4875110;28;85554;-72
2022/12/24 16:24:57;;;;;;;2.88;0.65;;;10.00;95.60;;;;;;4876809;28;86358;-71
2022/12/24 16:27:23;;;;;;;6.22;1.52;;;10.00;95.40;;;;;;4878528;28;86337;-71
2022/12/24 16:29:49;;;;;;;0.80;0.20;;;10.00;95.60;;;;;;4879679;28;87614;-72
2022/12/24 16:32:36;;;;;;;3.00;0.63;;;10.00;95.00;;;;;;4876173;28;86965;-71
2022/12/24 16:35:04;;;;;;;2.53;0.10;;;10.10;94.50;;;;;;4872560;28;86797;-71
2022/12/24 16:37:30;;;;;;;6.03;1.15;;;10.20;94.80;;;;;;4879189;28;86873;-72
2022/12/24 16:39:56;;;;;;;7.90;1.83;;;10.10;95.20;;;;;;4877083;28;87762;-71
2022/12/24 16:45:08;;;;;;;2.25;0.20;;;10.20;95.10;;;;;;4879275;28;86958;-71
2022/12/24 16:47:34;;;;;;;0.82;0.10;;;10.20;94.50;;;;;;4879539;28;88017;-71
2022/12/24 16:50:03;;;;;;;5.65;1.25;;;10.20;94.80;;;;;;4880890;28;86681;-71
2022/12/24 16:52:32;;;;;;;2.15;0.40;;;10.20;94.70;;;;;;4874999;28;88135;-71
2022/12/24 16:54:59;;;;;;;7.22;1.65;;;10.20;94.70;;;;;;4880401;28;87588;-72
2022/12/24 16:57:25;;;;;;;1.70;0.30;;;10.20;95.10;;;;;;4876504;28;87885;-71
2022/12/24 16:59:51;;;;;;;4.35;0.50;;;10.20;94.90;;;;;;4882236;28;87197;-71
2022/12/24 17:02:20;;;;;;;1.52;0.30;;;10.20;95.20;;;;;;4880549;28;86363;-72
2022/12/24 17:04:46;;;;;;;3.55;0.60;;;10.10;95.40;;;;;;4881994;28;86555;-71
2022/12/24 17:07:13;;;;;;;5.57;1.45;;;10.10;95.60;;;;;;4880856;28;87871;-72
2022/12/24 17:09:39;;;;;;;4.30;1.02;;;10.00;96.20;;;;;;4881558;28;86781;-71
2022/12/24 17:12:06;;;;;;;2.22;0.60;;;10.00;96.50;;;;;;4878562;28;87557;-72
2022/12/24 17:14:31;;;;;;;3.63;0.82;;;9.90;96.70;;;;;;4881805;28;87878;-72
2022/12/24 17:16:57;;;;;;;3.95;0.90;;;9.90;96.80;;;;;;4879899;28;86997;-71
2022/12/24 17:19:23;;;;;;;3.50;1.02;;;9.90;96.90;;;;;;4880686;28;87237;-71
2022/12/24 17:21:48;;;;;;;2.20;0.80;;;9.80;97.10;;;;;;4879479;28;86339;-72